createdAt,value
2022-11-19T00:02:07.266Z,7.20
2022-11-19T00:04:36.729Z,7.20
2022-11-19T00:07:05.078Z,7.10
2022-11-19T00:09:33.140Z,7.10
2022-11-19T00:12:18.923Z,7.10
2022-11-19T00:14:46.848Z,7.10
2022-11-19T00:17:14.865Z,7.10
2022-11-19T00:19:44.278Z,7.20
2022-11-19T00:22:12.472Z,7.10
2022-11-19T00:24:40.580Z,7.10
2022-11-19T00:27:08.668Z,7.00
2022-11-19T00:29:36.745Z,7.00
2022-11-19T00:32:05.455Z,7.10
2022-11-19T00:34:33.482Z,7.10
2022-11-19T00:37:02.847Z,7.20
2022-11-19T00:39:30.871Z,7.20
2022-11-19T00:41:58.865Z,7.20
2022-11-19T00:44:26.883Z,7.20
2022-11-19T00:46:54.950Z,7.10
2022-11-19T00:49:22.913Z,7.20
2022-11-19T00:51:50.979Z,7.20
2022-11-19T00:54:20.373Z,7.10
2022-11-19T00:56:48.349Z,7.10
2022-11-19T00:59:16.772Z,7.10
2022-11-19T01:01:45.188Z,7.00
2022-11-19T01:04:13.376Z,7.00
2022-11-19T01:06:41.439Z,7.00
2022-11-19T01:09:09.707Z,7.00
2022-11-19T01:11:39.423Z,7.00
2022-11-19T01:14:08.584Z,6.90
2022-11-19T01:16:38.797Z,6.90
2022-11-19T01:19:08.879Z,6.80
2022-11-19T01:21:37.969Z,6.80
2022-11-19T01:24:06.872Z,6.80
2022-11-19T01:26:35.080Z,6.70
2022-11-19T01:29:04.491Z,6.70
2022-11-19T01:31:32.642Z,6.80
2022-11-19T01:34:01.152Z,6.80
2022-11-19T01:36:30.419Z,6.80
2022-11-19T01:38:58.951Z,6.80
2022-11-19T01:41:29.662Z,6.80
2022-11-19T01:43:59.547Z,6.70
2022-11-19T01:46:30.474Z,6.60
2022-11-19T01:49:03.004Z,6.60
2022-11-19T01:51:36.219Z,6.50
2022-11-19T01:54:09.604Z,6.30
2022-11-19T01:56:38.046Z,6.20
2022-11-19T01:59:10.226Z,6.00
2022-11-19T02:01:39.627Z,5.90
2022-11-19T02:04:08.644Z,5.90
2022-11-19T02:06:36.860Z,5.90
2022-11-19T02:09:05.308Z,5.80
2022-11-19T02:11:51.611Z,5.90
2022-11-19T02:14:31.498Z,5.70
2022-11-19T02:17:08.121Z,5.60
2022-11-19T02:19:49.068Z,5.60
2022-11-19T02:22:29.658Z,5.70
2022-11-19T02:25:08.832Z,5.90
2022-11-19T02:28:12.744Z,5.90
2022-11-19T02:30:44.850Z,5.90
2022-11-19T02:33:20.906Z,6.10
2022-11-19T02:35:53.194Z,6.30
2022-11-19T02:38:29.859Z,6.50
2022-11-19T02:41:01.947Z,6.50
2022-11-19T02:43:36.758Z,6.50
2022-11-19T02:46:10.648Z,6.60
2022-11-19T02:48:41.546Z,6.50
2022-11-19T02:51:10.348Z,6.50
2022-11-19T02:53:38.388Z,6.50
2022-11-19T02:56:14.160Z,6.40
2022-11-19T02:59:04.998Z,6.20
2022-11-19T03:01:54.105Z,6.10
2022-11-19T03:04:30.928Z,6.10
2022-11-19T03:07:02.650Z,6.20
2022-11-19T03:09:33.169Z,6.20
2022-11-19T03:12:10.225Z,6.20
2022-11-19T03:15:08.041Z,6.30
2022-11-19T03:17:54.680Z,6.30
2022-11-19T03:20:27.376Z,6.30
2022-11-19T03:22:59.358Z,6.50
2022-11-19T03:25:29.916Z,6.50
2022-11-19T03:28:01.666Z,6.50
2022-11-19T03:30:31.578Z,6.60
2022-11-19T03:33:04.797Z,6.60
2022-11-19T03:35:37.786Z,6.60
2022-11-19T03:38:09.995Z,6.60
2022-11-19T03:40:38.420Z,6.60
2022-11-19T03:43:10.304Z,6.70
2022-11-19T03:45:44.178Z,6.70
2022-11-19T03:48:16.726Z,6.80
2022-11-19T03:50:49.504Z,6.80
2022-11-19T03:53:18.756Z,6.80
2022-11-19T03:55:51.774Z,6.80
2022-11-19T03:58:19.959Z,6.90
2022-11-19T04:00:47.956Z,6.90
2022-11-19T04:03:17.716Z,7.00
2022-11-19T04:05:45.708Z,7.00
2022-11-19T04:08:13.813Z,6.90
2022-11-19T04:10:41.795Z,7.00
2022-11-19T04:13:09.891Z,7.00
2022-11-19T04:15:38.332Z,7.00
2022-11-19T04:18:06.549Z,7.00
2022-11-19T04:20:35.884Z,7.00
2022-11-19T04:23:04.004Z,7.00
2022-11-19T04:25:32.014Z,7.10
2022-11-19T04:28:00.130Z,7.10
2022-11-19T04:30:30.004Z,7.10
2022-11-19T04:32:58.057Z,7.10
2022-11-19T04:35:26.076Z,7.10
2022-11-19T04:37:55.461Z,7.10
2022-11-19T04:40:23.444Z,7.00
2022-11-19T04:42:51.442Z,6.90
2022-11-19T04:45:19.420Z,6.80
2022-11-19T04:47:47.621Z,6.70
2022-11-19T04:50:15.715Z,6.70
2022-11-19T04:52:43.712Z,6.80
2022-11-19T04:55:13.073Z,6.80
2022-11-19T04:57:41.205Z,6.70
2022-11-19T05:00:10.745Z,6.70
2022-11-19T05:02:38.846Z,6.90
2022-11-19T05:05:07.872Z,7.00
2022-11-19T05:07:35.907Z,7.10
2022-11-19T05:10:04.028Z,7.20
2022-11-19T05:12:33.542Z,7.20
2022-11-19T05:15:01.513Z,7.20
2022-11-19T05:17:29.542Z,7.20
2022-11-19T05:19:59.537Z,7.10
2022-11-19T05:22:27.795Z,7.20
2022-11-19T05:24:55.797Z,7.30
2022-11-19T05:27:23.871Z,7.20
2022-11-19T05:29:53.161Z,7.30
2022-11-19T05:32:21.071Z,7.20
2022-11-19T05:34:49.748Z,7.20
2022-11-19T05:37:17.797Z,7.10
2022-11-19T05:39:45.831Z,7.10
2022-11-19T05:42:14.291Z,7.20
2022-11-19T05:44:42.270Z,7.20
2022-11-19T05:47:11.733Z,7.30
2022-11-19T05:49:39.758Z,7.40
2022-11-19T05:52:07.850Z,7.40
2022-11-19T05:54:35.922Z,7.50
2022-11-19T05:57:05.507Z,7.40
2022-11-19T05:59:33.931Z,7.40
2022-11-19T06:02:01.970Z,7.40
2022-11-19T06:04:31.338Z,7.40
2022-11-19T06:06:59.536Z,7.30
2022-11-19T06:09:27.639Z,7.30
2022-11-19T06:11:55.672Z,7.30
2022-11-19T06:14:25.345Z,7.30
2022-11-19T06:16:54.815Z,7.30
2022-11-19T06:19:23.242Z,7.30
2022-11-19T06:21:52.753Z,7.20
2022-11-19T06:24:21.062Z,7.00
2022-11-19T06:26:49.087Z,6.90
2022-11-19T06:29:19.059Z,6.80
2022-11-19T06:31:48.025Z,6.80
2022-11-19T06:34:16.415Z,6.80
2022-11-19T06:36:50.152Z,6.80
2022-11-19T06:39:20.521Z,6.80
2022-11-19T06:41:49.436Z,6.60
2022-11-19T06:44:17.549Z,6.50
2022-11-19T06:46:45.616Z,6.60
2022-11-19T06:49:19.607Z,6.60
2022-11-19T06:51:48.005Z,6.50
2022-11-19T06:54:16.000Z,6.50
2022-11-19T06:56:45.412Z,6.60
2022-11-19T06:59:13.432Z,6.70
2022-11-19T07:01:41.459Z,6.80
2022-11-19T07:04:09.482Z,6.70
2022-11-19T07:06:37.649Z,6.70
2022-11-19T07:09:05.653Z,6.70
2022-11-19T07:11:33.670Z,6.80
2022-11-19T07:14:03.952Z,6.90
2022-11-19T07:16:33.602Z,6.80
2022-11-19T07:19:03.426Z,6.80
2022-11-19T07:21:32.853Z,6.80
2022-11-19T07:24:02.138Z,6.70
2022-11-19T07:26:32.907Z,6.70
2022-11-19T07:29:05.055Z,6.70
2022-11-19T07:31:33.469Z,6.80
2022-11-19T07:34:02.077Z,7.00
2022-11-19T07:36:30.060Z,7.00
2022-11-19T07:38:59.037Z,7.10
2022-11-19T07:41:44.813Z,7.20
2022-11-19T07:44:14.541Z,7.30
2022-11-19T07:46:42.501Z,7.40
2022-11-19T07:49:10.954Z,7.50
2022-11-19T07:51:38.948Z,7.50
2022-11-19T07:54:09.208Z,7.70
2022-11-19T07:56:37.547Z,7.80
2022-11-19T07:59:05.925Z,7.90
2022-11-19T08:01:35.739Z,8.00
2022-11-19T08:04:05.171Z,8.10
2022-11-19T08:06:34.443Z,8.20
2022-11-19T08:09:03.179Z,8.40
2022-11-19T08:11:31.651Z,8.40
2022-11-19T08:14:01.136Z,8.50
2022-11-19T08:16:49.544Z,8.40
2022-11-19T08:19:20.172Z,8.50
2022-11-19T08:21:49.166Z,8.50
2022-11-19T08:24:20.355Z,8.40
2022-11-19T08:26:49.240Z,8.40
2022-11-19T08:29:19.987Z,8.50
2022-11-19T08:31:49.771Z,8.70
2022-11-19T08:34:19.778Z,8.70
2022-11-19T08:36:48.293Z,8.70
2022-11-19T08:39:16.641Z,8.60
2022-11-19T08:42:02.303Z,8.60
2022-11-19T08:44:30.258Z,8.60
2022-11-19T08:46:58.548Z,8.60
2022-11-19T08:49:28.308Z,8.70
2022-11-19T08:51:57.573Z,8.80
2022-11-19T08:54:25.914Z,8.90
2022-11-19T08:56:57.295Z,8.90
2022-11-19T08:59:26.896Z,9.00
2022-11-19T09:01:55.234Z,9.00
2022-11-19T09:04:27.892Z,9.20
2022-11-19T09:06:56.242Z,9.30
2022-11-19T09:09:25.655Z,9.40
2022-11-19T09:11:55.438Z,9.60
2022-11-19T09:14:23.768Z,9.70
2022-11-19T09:16:52.261Z,9.70
2022-11-19T09:19:20.684Z,9.80
2022-11-19T09:21:50.450Z,9.70
2022-11-19T09:24:18.981Z,9.80
2022-11-19T09:26:52.491Z,9.90
2022-11-19T09:29:21.353Z,10.00
2022-11-19T09:31:49.757Z,10.10
2022-11-19T09:34:18.551Z,10.10
2022-11-19T09:36:46.729Z,10.10
2022-11-19T09:39:16.549Z,10.20
2022-11-19T09:41:51.654Z,10.00
2022-11-19T09:44:39.008Z,9.70
2022-11-19T09:47:18.244Z,9.50
2022-11-19T09:49:54.042Z,9.30
2022-11-19T09:52:26.063Z,9.30
2022-11-19T09:54:58.377Z,9.50
2022-11-19T09:57:32.987Z,9.60
2022-11-19T10:00:03.218Z,9.60
2022-11-19T10:02:31.534Z,9.50
2022-11-19T10:05:00.139Z,9.40
2022-11-19T10:07:38.621Z,9.50
2022-11-19T10:10:25.052Z,9.60
2022-11-19T10:13:13.603Z,9.60
2022-11-19T10:15:56.499Z,9.70
2022-11-19T10:18:33.590Z,9.70
2022-11-19T10:21:12.054Z,9.50
2022-11-19T10:23:49.833Z,9.50
2022-11-19T10:26:24.034Z,9.70
2022-11-19T10:28:57.523Z,9.80
2022-11-19T10:31:33.943Z,9.80
2022-11-19T10:34:11.897Z,9.70
2022-11-19T10:36:44.051Z,10.00
2022-11-19T10:39:21.024Z,10.40
2022-11-19T10:41:56.082Z,10.70
2022-11-19T10:44:40.098Z,10.80
2022-11-19T10:47:13.654Z,10.80
2022-11-19T10:49:44.448Z,10.40
2022-11-19T10:52:25.031Z,10.10
2022-11-19T10:54:57.549Z,10.00
2022-11-19T10:57:29.462Z,10.10
2022-11-19T10:59:58.424Z,10.10
2022-11-19T11:02:33.033Z,10.00
2022-11-19T11:05:05.200Z,9.90
2022-11-19T11:07:57.130Z,9.90
2022-11-19T11:10:29.164Z,10.00
2022-11-19T11:13:24.048Z,10.00
2022-11-19T11:15:54.569Z,10.00
2022-11-19T11:18:28.005Z,10.00
2022-11-19T11:20:57.491Z,10.10
2022-11-19T11:23:27.466Z,9.90
2022-11-19T11:26:03.562Z,10.00
2022-11-19T11:28:33.606Z,10.00
2022-11-19T11:31:03.624Z,10.20
2022-11-19T11:33:35.542Z,10.40
2022-11-19T11:36:07.597Z,10.20
2022-11-19T11:38:43.449Z,10.10
2022-11-19T11:42:03.666Z,10.10
2022-11-19T11:44:06.478Z,10.00
2022-11-19T11:46:37.245Z,9.80
2022-11-19T11:49:12.780Z,9.80
2022-11-19T11:51:41.291Z,9.90
2022-11-19T11:54:18.920Z,10.00
2022-11-19T11:56:47.473Z,10.10
2022-11-19T11:59:29.115Z,9.90
2022-11-19T12:01:58.819Z,10.00
2022-11-19T12:04:27.242Z,10.10
2022-11-19T12:07:08.592Z,10.10
2022-11-19T12:09:47.283Z,9.90
2022-11-19T12:12:25.264Z,9.70
2022-11-19T12:15:01.733Z,9.70
2022-11-19T12:17:41.672Z,9.70
2022-11-19T12:20:28.170Z,9.60
2022-11-19T12:23:11.189Z,9.40
2022-11-19T12:25:44.830Z,9.30
2022-11-19T12:28:37.798Z,9.30
2022-11-19T12:31:17.850Z,9.30
2022-11-19T12:34:07.524Z,9.30
2022-11-19T12:36:48.410Z,9.40
2022-11-19T12:39:34.782Z,9.30
2022-11-19T12:42:18.321Z,9.40
2022-11-19T12:44:54.926Z,9.40
2022-11-19T12:47:44.744Z,9.50
2022-11-19T12:50:21.840Z,9.20
2022-11-19T12:53:26.588Z,9.00
2022-11-19T12:56:07.346Z,8.90
2022-11-19T12:58:44.442Z,8.90
2022-11-19T13:01:16.720Z,9.00
2022-11-19T13:03:57.978Z,8.90
2022-11-19T13:06:29.690Z,8.90
2022-11-19T13:09:02.524Z,8.90
2022-11-19T13:11:37.006Z,9.00
2022-11-19T13:14:12.193Z,9.10
2022-11-19T13:16:42.980Z,9.10
2022-11-19T13:19:22.595Z,9.00
2022-11-19T13:21:55.942Z,9.10
2022-11-19T13:24:30.598Z,9.10
2022-11-19T13:27:03.394Z,9.20
2022-11-19T13:29:38.434Z,9.30
2022-11-19T13:32:15.591Z,9.20
2022-11-19T13:35:01.744Z,9.20
2022-11-19T13:37:44.549Z,9.10
2022-11-19T13:40:22.133Z,9.10
2022-11-19T13:43:30.904Z,9.00
2022-11-19T13:46:06.871Z,9.00
2022-11-19T13:48:39.623Z,9.00
2022-11-19T13:51:21.063Z,9.10
2022-11-19T13:53:50.565Z,9.10
2022-11-19T13:56:20.192Z,9.10
2022-11-19T13:58:57.516Z,9.20
2022-11-19T14:01:58.794Z,9.20
2022-11-19T14:04:41.996Z,9.20
2022-11-19T14:07:33.690Z,9.20
2022-11-19T14:10:12.052Z,9.20
2022-11-19T14:13:12.540Z,9.10
2022-11-19T14:16:11.228Z,9.10
2022-11-19T14:19:00.234Z,9.00
2022-11-19T14:22:06.817Z,9.00
2022-11-19T14:25:17.455Z,9.00
2022-11-19T14:27:46.170Z,9.10
2022-11-19T14:30:20.435Z,9.30
2022-11-19T14:32:51.374Z,9.30
2022-11-19T14:35:44.350Z,9.20
2022-11-19T14:38:35.939Z,9.20
2022-11-19T14:41:30.937Z,9.20
2022-11-19T14:44:33.601Z,9.10
2022-11-19T14:47:34.874Z,9.10
2022-11-19T14:50:06.593Z,9.00
2022-11-19T14:52:39.577Z,9.00
2022-11-19T14:55:21.668Z,9.10
2022-11-19T14:57:59.408Z,9.10
2022-11-19T15:00:32.966Z,9.10
2022-11-19T15:03:04.006Z,9.20
2022-11-19T15:05:34.581Z,9.30
2022-11-19T15:08:43.017Z,9.30
2022-11-19T15:11:12.589Z,9.30
2022-11-19T15:13:43.042Z,9.30
2022-11-19T15:16:14.632Z,9.30
2022-11-19T15:19:22.002Z,9.20
2022-11-19T15:22:29.194Z,9.20
2022-11-19T15:25:29.960Z,9.20
2022-11-19T15:28:19.387Z,9.10
2022-11-19T15:31:10.076Z,9.10
2022-11-19T15:34:07.626Z,9.10
2022-11-19T15:36:39.744Z,9.00
2022-11-19T15:39:15.355Z,9.00
2022-11-19T15:42:00.362Z,9.00
2022-11-19T15:44:39.388Z,9.00
2022-11-19T15:47:14.297Z,8.90
2022-11-19T15:49:45.237Z,8.90
2022-11-19T15:52:21.193Z,8.90
2022-11-19T15:54:50.930Z,9.00
2022-11-19T15:57:24.184Z,9.00
2022-11-19T15:59:56.516Z,8.90
2022-11-19T16:02:34.619Z,8.90
2022-11-19T16:05:03.417Z,9.00
2022-11-19T16:07:32.643Z,8.90
2022-11-19T16:10:01.958Z,9.00
2022-11-19T16:12:47.743Z,8.90
2022-11-19T16:15:37.079Z,8.90
2022-11-19T16:18:13.896Z,8.80
2022-11-19T16:21:51.622Z,8.50
2022-11-19T16:24:39.593Z,8.30
2022-11-19T16:27:12.843Z,8.20
2022-11-19T16:29:43.598Z,8.10
2022-11-19T16:32:17.944Z,7.90
2022-11-19T16:34:48.236Z,7.80
2022-11-19T16:37:18.238Z,7.70
2022-11-19T16:39:52.194Z,7.50
2022-11-19T16:42:26.460Z,7.40
2022-11-19T16:44:57.007Z,7.40
2022-11-19T16:47:29.505Z,7.20
2022-11-19T16:50:03.032Z,7.20
2022-11-19T16:52:42.479Z,7.20
2022-11-19T16:55:52.105Z,7.20
2022-11-19T16:58:25.388Z,7.00
2022-11-19T17:00:59.339Z,7.00
2022-11-19T17:03:34.452Z,7.00
2022-11-19T17:06:05.824Z,7.10
2022-11-19T17:08:37.668Z,7.20
2022-11-19T17:11:35.938Z,7.10
2022-11-19T17:14:41.432Z,7.10
2022-11-19T17:17:26.025Z,7.10
2022-11-19T17:19:56.471Z,7.10
2022-11-19T17:22:30.644Z,7.10
2022-11-19T17:24:59.184Z,7.10
2022-11-19T17:27:29.948Z,7.10
2022-11-19T17:30:02.890Z,7.10
2022-11-19T17:32:37.895Z,7.10
2022-11-19T17:35:09.281Z,7.10
2022-11-19T17:37:39.097Z,7.10
2022-11-19T17:40:09.451Z,7.20
2022-11-19T17:43:09.632Z,7.30
2022-11-19T17:45:38.056Z,7.20
2022-11-19T17:48:17.929Z,7.20
2022-11-19T17:50:46.416Z,7.20
2022-11-19T17:53:16.151Z,7.20
2022-11-19T17:55:45.043Z,7.20
2022-11-19T17:58:13.474Z,7.20
2022-11-19T18:00:42.256Z,7.20
2022-11-19T18:03:13.642Z,7.10
2022-11-19T18:05:47.158Z,7.00
2022-11-19T18:08:17.396Z,7.00
2022-11-19T18:10:48.569Z,7.00
2022-11-19T18:13:24.996Z,6.90
2022-11-19T18:15:54.773Z,6.90
2022-11-19T18:18:23.151Z,6.80
2022-11-19T18:20:55.409Z,6.80
2022-11-19T18:23:27.409Z,6.90
2022-11-19T18:25:55.782Z,6.90
2022-11-19T18:28:24.131Z,6.90
2022-11-19T18:30:52.506Z,6.90
2022-11-19T18:33:21.016Z,6.90
2022-11-19T18:35:50.140Z,7.00
2022-11-19T18:38:18.540Z,7.10
2022-11-19T18:40:48.410Z,7.10
2022-11-19T18:43:39.834Z,7.10
2022-11-19T18:46:08.078Z,7.10
2022-11-19T18:48:36.162Z,7.10
2022-11-19T18:51:04.526Z,7.10
2022-11-19T18:53:32.582Z,7.10
2022-11-19T18:56:01.977Z,7.00
2022-11-19T18:58:30.003Z,7.10
2022-11-19T19:00:57.980Z,7.10
2022-11-19T19:03:25.940Z,7.10
2022-11-19T19:05:54.359Z,7.20
2022-11-19T19:08:22.353Z,7.20
2022-11-19T19:10:51.513Z,7.30
2022-11-19T19:13:19.936Z,7.30
2022-11-19T19:15:48.002Z,7.30
2022-11-19T19:18:16.067Z,7.30
2022-11-19T19:20:44.139Z,7.30
2022-11-19T19:23:12.201Z,7.40
2022-11-19T19:25:40.327Z,7.40
2022-11-19T19:28:08.384Z,7.40
2022-11-19T19:30:38.207Z,7.40
2022-11-19T19:33:06.215Z,7.40
2022-11-19T19:35:34.309Z,7.40
2022-11-19T19:38:02.386Z,7.50
2022-11-19T19:40:30.601Z,7.40
2022-11-19T19:42:58.641Z,7.30
2022-11-19T19:45:26.778Z,7.30
2022-11-19T19:47:56.328Z,7.30
2022-11-19T19:50:27.315Z,7.30
2022-11-19T19:52:58.849Z,7.30
2022-11-19T19:55:29.151Z,7.30
2022-11-19T19:57:57.210Z,7.30
2022-11-19T20:00:25.381Z,7.20
2022-11-19T20:02:53.852Z,7.20
2022-11-19T20:05:27.680Z,7.10
2022-11-19T20:08:00.678Z,7.00
2022-11-19T20:10:28.658Z,7.00
2022-11-19T20:13:14.618Z,7.00
2022-11-19T20:15:44.933Z,7.00
2022-11-19T20:18:18.028Z,7.00
2022-11-19T20:20:56.208Z,6.90
2022-11-19T20:23:25.572Z,6.90
2022-11-19T20:26:01.066Z,7.00
2022-11-19T20:28:30.029Z,7.00
2022-11-19T20:31:04.869Z,7.00
2022-11-19T20:33:33.107Z,6.90
2022-11-19T20:36:06.967Z,6.90
2022-11-19T20:38:37.228Z,6.90
2022-11-19T20:41:06.708Z,6.70
2022-11-19T20:43:53.475Z,6.80
2022-11-19T20:46:40.282Z,6.70
2022-11-19T20:49:10.495Z,6.70
2022-11-19T20:51:41.657Z,6.70
2022-11-19T20:54:09.985Z,6.60
2022-11-19T20:56:45.892Z,6.50
2022-11-19T20:59:16.721Z,6.40
2022-11-19T21:01:56.597Z,6.30
2022-11-19T21:04:29.104Z,6.30
2022-11-19T21:07:01.213Z,6.30
2022-11-19T21:09:30.986Z,6.30
2022-11-19T21:12:00.222Z,6.40
2022-11-19T21:14:37.952Z,6.40
2022-11-19T21:17:05.992Z,6.40
2022-11-19T21:19:37.218Z,6.50
2022-11-19T21:22:12.012Z,6.50
2022-11-19T21:24:39.996Z,6.50
2022-11-19T21:27:10.396Z,6.60
2022-11-19T21:29:39.078Z,6.60
2022-11-19T21:32:09.811Z,6.60
2022-11-19T21:34:42.930Z,6.60
2022-11-19T21:37:16.877Z,6.60
2022-11-19T21:39:45.962Z,6.40
2022-11-19T21:42:16.961Z,6.40
2022-11-19T21:44:48.809Z,6.30
2022-11-19T21:47:16.827Z,6.40
2022-11-19T21:49:47.605Z,6.30
2022-11-19T21:52:24.624Z,6.20
2022-11-19T21:54:53.253Z,6.20
2022-11-19T21:57:24.689Z,6.20
2022-11-19T21:59:52.678Z,6.30
2022-11-19T22:02:22.802Z,6.30
2022-11-19T22:04:50.763Z,6.20
2022-11-19T22:07:20.227Z,6.20
2022-11-19T22:09:48.283Z,6.20
2022-11-19T22:12:16.377Z,6.10
2022-11-19T22:14:44.370Z,6.10
2022-11-19T22:17:12.401Z,6.10
2022-11-19T22:19:40.498Z,6.10
2022-11-19T22:22:08.747Z,6.10
2022-11-19T22:24:38.120Z,6.10
2022-11-19T22:27:06.163Z,6.10
2022-11-19T22:29:34.657Z,6.00
2022-11-19T22:32:02.717Z,6.00
2022-11-19T22:34:30.678Z,5.90
2022-11-19T22:36:58.589Z,5.90
2022-11-19T22:39:26.556Z,5.80
2022-11-19T22:41:55.988Z,5.80
2022-11-19T22:44:24.171Z,5.80
2022-11-19T22:46:52.529Z,5.80
2022-11-19T22:49:20.833Z,5.80
2022-11-19T22:51:49.341Z,5.80
2022-11-19T22:54:17.510Z,5.80
2022-11-19T22:56:45.545Z,5.80
2022-11-19T22:59:15.083Z,5.70
2022-11-19T23:01:43.103Z,5.70
2022-11-19T23:04:15.552Z,5.60
2022-11-19T23:06:43.574Z,5.50
2022-11-19T23:09:11.642Z,5.40
2022-11-19T23:11:57.371Z,5.40
2022-11-19T23:14:26.726Z,5.40
2022-11-19T23:16:54.750Z,5.40
2022-11-19T23:19:23.291Z,5.40
2022-11-19T23:21:52.394Z,5.30
2022-11-19T23:24:20.432Z,5.30
2022-11-19T23:26:48.480Z,5.30
2022-11-19T23:29:16.500Z,5.30
2022-11-19T23:31:45.922Z,5.40
2022-11-19T23:34:13.950Z,5.30
2022-11-19T23:36:42.773Z,5.30
2022-11-19T23:39:15.620Z,5.20
2022-11-19T23:41:43.928Z,5.20
2022-11-19T23:44:12.248Z,5.10
2022-11-19T23:46:40.711Z,5.10
2022-11-19T23:49:12.563Z,5.00
2022-11-19T23:51:41.177Z,5.00
2022-11-19T23:54:09.326Z,5.00
2022-11-19T23:56:37.429Z,5.00
2022-11-19T23:59:07.427Z,5.00
